Flight Track Log - Related Links

Times and Time Zones

All times are in EDT time to prevent confusion due to time zone crossing. See the UAL341 flight status page for this flight to view local times or setup timezone preferences in your user account.

Time Position Orientation Groundspeed Altitude Reporting Facility
EDT Latitude Longitude Course Direction KTS MPH feet Rate Location/Type
Mon 09:39:19 AM 32.7500 -117.2167 320° Northwest 169 194 1,300  Level Southern California TRACON
Mon 09:40:13 AM 32.7833 -117.2667 308° West 229 264 2,900 2,493 Climbing Southern California TRACON
Mon 09:41:41 AM 32.8358 -117.3667 302° West 250 288 7,200 2,920 Climbing Los Angeles Center
Mon 09:42:00 AM 32.9860 -117.5456 309° West  Level FlightAware Approximate
Mon 09:42:43 AM 32.8831 -117.4383 308° West 268 308 10,200  Level Los Angeles Center
Mon 09:43:00 AM 33.0496 -117.6361 310° West  Level FlightAware Approximate
Mon 09:43:44 AM 32.9506 -117.5014 322° Northwest 304 350 11,800  Level Los Angeles Center
Mon 09:44:00 AM 33.1112 -117.7279 320° Northwest  Level FlightAware Approximate
Mon 09:44:46 AM 33.0169 -117.5822 314° West 341 392 14,100  Level Los Angeles Center
Mon 09:45:47 AM 33.0764 -117.6739 308° West 346 398 16,000 1,902 Climbing Los Angeles Center
Mon 09:46:49 AM 33.1383 -117.7711 307° West 362 417 18,000 1,756 Climbing Los Angeles Center
Mon 09:47:50 AM 33.1953 -117.8736 304° West 369 425 19,600 1,756 Climbing Los Angeles Center
Mon 09:48:52 AM 33.2697 -117.9978 306° West 382 440 21,600 1,756 Climbing Los Angeles Center
Mon 09:49:53 AM 33.3414 -118.0975 311° West 390 449 23,200 1,415 Climbing Los Angeles Center
Mon 09:50:55 AM 33.4142 -118.2000 310° West 399 459 24,500 1,258 Climbing Los Angeles Center
Mon 09:51:57 AM 33.4883 -118.3042 311° West 406 467 25,800 1,220 Climbing Los Angeles Center
Mon 09:52:58 AM 33.5628 -118.4131 309° West 414 476 27,000 1,268 Climbing Los Angeles Center
Mon 09:54:00 AM 33.6425 -118.5244 311° West 429 494 28,400 1,258 Climbing Los Angeles Center
Mon 09:55:02 AM 33.7211 -118.6350 311° West 429 494 29,600 1,073 Climbing Los Angeles Center
Mon 09:56:03 AM 33.7986 -118.7467 310° West 432 497 30,600 1,024 Climbing Los Angeles Center
Mon 09:57:05 AM 33.8783 -118.8583 311° West 437 503 31,700 1,171 Climbing Los Angeles Center
Mon 09:58:06 AM 33.9564 -118.9697 310° West 435 501 33,000 1,366 Climbing Los Angeles Center
Mon 09:59:08 AM 34.0475 -119.1036 309° West 431 496 34,500 1,258 Climbing Los Angeles Center
Mon 10:00:10 AM 34.1231 -119.2128 310° West 425 489 35,600 726 Climbing Los Angeles Center
Mon 10:01:12 AM 34.1981 -119.3200 310° West 419 482 36,000 195 Climbing Los Angeles Center
Mon 10:02:13 AM 34.2722 -119.4278 310° West 417 480 36,000  Level Los Angeles Center
Mon 10:03:15 AM 34.3461 -119.5369 309° West 420 483 36,000  Level Los Angeles Center
Mon 10:04:17 AM 34.4211 -119.6461 310° West 421 484 36,000  Level Los Angeles Center
Mon 10:05:18 AM 34.4961 -119.7550 310° West 421 484 36,000  Level Los Angeles Center
Mon 10:06:57 AM 34.6439 -119.9178 318° Northwest 425 489 36,000  Level Oakland Center
Mon 10:07:58 AM 34.7317 -120.0111 319° Northwest 420 483 36,000  Level Oakland Center
Mon 10:08:59 AM 34.8181 -120.1069 318° Northwest 420 483 36,000  Level Oakland Center
Mon 10:10:00 AM 34.9158 -120.2139 318° Northwest 419 482 36,000  Level Oakland Center
Mon 10:11:01 AM 34.9906 -120.2986 317° Northwest 418 481 36,000  Level Oakland Center
Mon 10:12:02 AM 35.0783 -120.3950 318° Northwest 420 483 36,000  Level Oakland Center
Mon 10:13:03 AM 35.1631 -120.4925 317° Northwest 417 480 36,000  Level Oakland Center
Mon 10:14:04 AM 35.2508 -120.5892 318° Northwest 417 480 36,000  Level Oakland Center
Mon 10:14:34 AM 35.3092 -120.6533 318° Northwest 423 487 36,000  Level Los Angeles Center
Mon 10:15:36 AM 35.3975 -120.7467 319° Northwest 423 487 36,000  Level Los Angeles Center
Mon 10:16:37 AM 35.4936 -120.8281 325° Northwest 421 484 36,000  Level Los Angeles Center
Mon 10:17:39 AM 35.5883 -120.9125 324° Northwest 421 484 36,000  Level Los Angeles Center
Mon 10:18:41 AM 35.6800 -120.9942 324° Northwest 415 478 36,000  Level Los Angeles Center
Mon 10:19:43 AM 35.7931 -121.0981 323° Northwest 420 483 36,000 -145 Level Los Angeles Center
Mon 10:20:45 AM 35.8886 -121.1828 324° Northwest 422 486 35,700 -720 Descending Los Angeles Center
Mon 10:22:13 AM 36.0189 -121.3036 323° Northwest 421 484 34,200 -1,691 Descending Oakland Center
Mon 10:23:14 AM 36.1150 -121.3911 324° Northwest 425 489 31,500 -2,607 Descending Oakland Center
Mon 10:24:15 AM 36.2114 -121.4772 324° Northwest 427 491 28,900 -1,869 Descending Oakland Center
Mon 10:25:16 AM 36.3064 -121.5614 324° Northwest 425 489 27,700 -976 Descending Oakland Center
Mon 10:26:18 AM 36.3906 -121.6372 324° Northwest 397 457 26,900 -927 Descending Oakland Center
Mon 10:27:19 AM 36.4397 -121.7336 302° West 356 410 25,800 -1,200 Descending Oakland Center
Mon 10:28:13 AM 36.5000 -121.8333 307° West 345 397 24,600 -1,111 Descending Northern Cal TRACON
Mon 10:29:07 AM 36.5667 -121.8833 329° Northwest 358 412 23,800 -1,222 Descending Northern Cal TRACON
Mon 10:30:01 AM 36.6500 -121.9167 342° North 346 398 22,400 -1,550 Descending Northern Cal TRACON
Mon 10:31:07 AM 36.7500 -121.9667 338° Northwest 340 391 20,700 -1,952 Descending Northern Cal TRACON
Mon 10:32:07 AM 36.8500 -121.9833 352° North 333 383 18,300 -2,350 Descending Northern Cal TRACON
Mon 10:33:07 AM 36.9333 -122.0167 342° North 326 375 16,000 -2,526 Descending Northern Cal TRACON
Mon 10:34:01 AM 37.0167 -122.0333 351° North 315 362 13,500 -2,579 Descending Northern Cal TRACON
Mon 10:35:01 AM 37.1000 -122.0667 342° North 305 351 11,100 -1,842 Descending Northern Cal TRACON
Mon 10:35:55 AM 37.1500 -122.1000 332° Northwest 256 295 10,000 -1,011 Descending Northern Cal TRACON
Mon 10:36:30 AM 37.1653 -122.1286 304° West 251 289 9,600 -688 Descending Oakland Center
Mon 10:37:31 AM 37.2158 -122.1831 319° Northwest 240 276 8,900 -976 Descending Oakland Center
Mon 10:38:33 AM 37.2742 -122.2436 320° Northwest 231 266 7,600 -1,317 Descending Oakland Center
Mon 10:39:34 AM 37.3244 -122.2944 321° Northwest 230 265 6,200 -836 Descending Oakland Center
Mon 10:40:35 AM 37.3683 -122.2375 46° Northeast 242 278 5,900 -148 Descending Oakland Center
Mon 10:41:36 AM 37.3858 -122.1531 75° East 248 285 5,900  Level Oakland Center
Mon 10:42:38 AM 37.4058 -122.0853 70° East 221 254 5,900 -683 Level Oakland Center
Mon 10:43:39 AM 37.4575 -122.0694 14° North 209 241 4,500 -984 Descending Oakland Center
Mon 10:44:40 AM 37.5025 -122.1047 328° Northwest 196 226 3,900 -689 Descending Oakland Center
Mon 10:45:41 AM 37.5283 -122.1592 301° West 188 216 3,100 -732 Descending Oakland Center
Mon 10:46:43 AM 37.5667 -122.2333 303° West 177 204 2,400 -738 Descending Northern Cal TRACON
Mon 10:47:43 AM 37.5833 -122.2667 302° West 148 170 1,600 -737 Descending Northern Cal TRACON
Mon 10:48:37 AM 37.6000 -122.3167 293° West 145 167 1,000 -667 Descending Northern Cal TRACON
Mon 10:51:00 AM 37.6167 -122.3667 322° Northwest  Level FlightAware Approximate
Mon 10:58:00 AM 37.6191 -122.3752 322° Northwest  Level Estimated

Login

Don't have an account? Register now (free) for customized features, flight alerts, and more!